NJE024B EGHQ-EHRD
Flight info
| Callsign | NJE024B |
|---|---|
| Flight time | N/A |
| Altitude | 41000 |
| Route | DAWLY L620 MID M185 KOBBI M197 REDFA |
| Aircraft | CL60/M-SADE3FGHIJ1J3J4J7P2RWXY/HB1D1 |
Departure
| Time | 2026-04-23 06:59 |
|---|---|
| Airport | Cornwall Airport Newquay (EGHQ) |
Arrival
| Time | N/A |
|---|---|
| Airport | Rotterdam The Hague Airport (EHRD) |
| Time | Latitude | Longitude | Altitude | Speed | Heading |
|---|---|---|---|---|---|
| 2026-04-23 06:40 | 50.44442 | -4.99733 | 348 ft | 0 kts | 156° |
| 2026-04-23 06:58 | 50.44442 | -4.99732 | 348 ft | 0 kts | 156° |
| 2026-04-23 06:58 | 50.44430 | -4.99727 | 348 ft | 4 kts | 189° |
| 2026-04-23 06:58 | 50.44384 | -4.99887 | 346 ft | 22 kts | 245° |
| 2026-04-23 06:58 | 50.44338 | -5.00044 | 341 ft | 16 kts | 246° |
| 2026-04-23 06:59 | 50.44249 | -4.99988 | 344 ft | 25 kts | 120° |
| 2026-04-23 06:59 | 50.44002 | -4.99336 | 359 ft | 121 kts | 121° |
| 2026-04-23 06:59 | 50.43460 | -4.97964 | 921 ft | 167 kts | 122° |
| 2026-04-23 06:59 | 50.42880 | -4.96513 | 2051 ft | 150 kts | 119° |
| 2026-04-23 07:00 | 50.42372 | -4.95022 | 2809 ft | 174 kts | 118° |
| 2026-04-23 07:00 | 50.41828 | -4.93363 | 4137 ft | 180 kts | 115° |
| 2026-04-23 07:00 | 50.41727 | -4.91439 | 5388 ft | 193 kts | 85° |
| 2026-04-23 07:00 | 50.42132 | -4.89415 | 6577 ft | 207 kts | 73° |
| 2026-04-23 07:01 | 50.42690 | -4.87297 | 7741 ft | 228 kts | 72° |
| 2026-04-23 07:01 | 50.43315 | -4.84856 | 8710 ft | 258 kts | 72° |
| 2026-04-23 07:01 | 50.43967 | -4.82200 | 9947 ft | 274 kts | 72° |
| 2026-04-23 07:01 | 50.44771 | -4.79479 | 11354 ft | 285 kts | 63° |
| 2026-04-23 07:02 | 50.45552 | -4.76698 | 12753 ft | 287 kts | 80° |
| 2026-04-23 07:02 | 50.45849 | -4.73606 | 14087 ft | 292 kts | 84° |
| 2026-04-23 07:02 | 50.46102 | -4.70474 | 15334 ft | 298 kts | 84° |
| 2026-04-23 07:02 | 50.46367 | -4.67246 | 16520 ft | 305 kts | 84° |
| 2026-04-23 07:03 | 50.46641 | -4.63968 | 17651 ft | 311 kts | 83° |
| 2026-04-23 07:03 | 50.46930 | -4.60596 | 18760 ft | 317 kts | 83° |
| 2026-04-23 07:03 | 50.47240 | -4.57168 | 19794 ft | 323 kts | 82° |
| 2026-04-23 07:03 | 50.47570 | -4.53688 | 20758 ft | 330 kts | 82° |
| 2026-04-23 07:04 | 50.47910 | -4.50107 | 21743 ft | 335 kts | 82° |
| 2026-04-23 07:04 | 50.48255 | -4.46465 | 22702 ft | 341 kts | 82° |
| 2026-04-23 07:04 | 50.48607 | -4.42758 | 23600 ft | 347 kts | 82° |
| 2026-04-23 07:04 | 50.48960 | -4.39032 | 24431 ft | 354 kts | 82° |
| 2026-04-23 07:05 | 50.49323 | -4.35198 | 25308 ft | 359 kts | 82° |
| 2026-04-23 07:05 | 50.49694 | -4.31266 | 26171 ft | 364 kts | 82° |
| 2026-04-23 07:05 | 50.50061 | -4.27364 | 26937 ft | 370 kts | 82° |
| 2026-04-23 07:05 | 50.50447 | -4.23261 | 27678 ft | 376 kts | 82° |
| 2026-04-23 07:06 | 50.50839 | -4.19081 | 28428 ft | 381 kts | 81° |
| 2026-04-23 07:06 | 50.51229 | -4.14907 | 29138 ft | 386 kts | 81° |
| 2026-04-23 07:06 | 50.51617 | -4.10740 | 29776 ft | 391 kts | 81° |
| 2026-04-23 07:06 | 50.52010 | -4.06497 | 30389 ft | 396 kts | 81° |
| 2026-04-23 07:07 | 50.52410 | -4.02171 | 30999 ft | 401 kts | 81° |
| 2026-04-23 07:07 | 50.52809 | -3.97850 | 31550 ft | 406 kts | 81° |
| 2026-04-23 07:07 | 50.53215 | -3.93424 | 32084 ft | 411 kts | 80° |
| 2026-04-23 07:07 | 50.53629 | -3.88895 | 32553 ft | 417 kts | 80° |
| 2026-04-23 07:08 | 50.54042 | -3.84357 | 33027 ft | 421 kts | 80° |
| 2026-04-23 07:08 | 50.54456 | -3.79792 | 33461 ft | 426 kts | 80° |
| 2026-04-23 07:08 | 50.54872 | -3.75189 | 33924 ft | 429 kts | 79° |
| 2026-04-23 07:08 | 50.55292 | -3.70507 | 34396 ft | 432 kts | 79° |
| 2026-04-23 07:09 | 50.55707 | -3.65869 | 35010 ft | 431 kts | 79° |
| 2026-04-23 07:09 | 50.56119 | -3.61220 | 35744 ft | 427 kts | 79° |
| 2026-04-23 07:09 | 50.56523 | -3.56655 | 36469 ft | 423 kts | 79° |
| 2026-04-23 07:09 | 50.56924 | -3.52102 | 37153 ft | 419 kts | 79° |
| 2026-04-23 07:10 | 50.57327 | -3.47607 | 37755 ft | 416 kts | 77° |
| 2026-04-23 07:10 | 50.57980 | -3.43239 | 38257 ft | 411 kts | 70° |
| 2026-04-23 07:10 | 50.58799 | -3.38969 | 38689 ft | 411 kts | 70° |
| 2026-04-23 07:10 | 50.59625 | -3.34642 | 39093 ft | 411 kts | 70° |
| 2026-04-23 07:11 | 50.60449 | -3.30303 | 39486 ft | 411 kts | 71° |
| 2026-04-23 07:11 | 50.61268 | -3.25977 | 39891 ft | 410 kts | 70° |
| 2026-04-23 07:11 | 50.62089 | -3.21627 | 40268 ft | 409 kts | 71° |
| 2026-04-23 07:12 | 50.63707 | -3.13023 | 40855 ft | 408 kts | 71° |
| 2026-04-23 07:12 | 50.64504 | -3.08767 | 41080 ft | 407 kts | 71° |
| 2026-04-23 07:12 | 50.65298 | -3.04516 | 41293 ft | 407 kts | 71° |
| 2026-04-23 07:13 | 50.66906 | -2.95879 | 41350 ft | 417 kts | 71° |
| 2026-04-23 07:13 | 50.68540 | -2.87059 | 41339 ft | 426 kts | 71° |
| 2026-04-23 07:14 | 50.70214 | -2.77972 | 41332 ft | 435 kts | 71° |
| 2026-04-23 07:14 | 50.71902 | -2.68759 | 41347 ft | 442 kts | 71° |
| 2026-04-23 07:15 | 50.73608 | -2.59394 | 41349 ft | 449 kts | 71° |
| 2026-04-23 07:15 | 50.75332 | -2.49882 | 41343 ft | 453 kts | 71° |
| 2026-04-23 07:16 | 50.77063 | -2.40282 | 41336 ft | 458 kts | 71° |
| 2026-04-23 07:16 | 50.78812 | -2.30535 | 41343 ft | 463 kts | 72° |
| 2026-04-23 07:17 | 50.80568 | -2.20689 | 41351 ft | 468 kts | 72° |
| 2026-04-23 07:17 | 50.82329 | -2.10751 | 41363 ft | 474 kts | 72° |
| 2026-04-23 07:18 | 50.84101 | -2.00696 | 41381 ft | 479 kts | 72° |
| 2026-04-23 07:18 | 50.85894 | -1.90468 | 41362 ft | 482 kts | 72° |
| 2026-04-23 07:19 | 50.87660 | -1.80334 | 41376 ft | 481 kts | 72° |
| 2026-04-23 07:19 | 50.89425 | -1.70142 | 41387 ft | 479 kts | 72° |
| 2026-04-23 07:20 | 50.91182 | -1.59943 | 41366 ft | 479 kts | 72° |
| 2026-04-23 07:20 | 50.92923 | -1.49784 | 41385 ft | 477 kts | 72° |
| 2026-04-23 07:21 | 50.94658 | -1.39597 | 41389 ft | 477 kts | 72° |
| 2026-04-23 07:21 | 50.96257 | -1.29364 | 41392 ft | 478 kts | 75° |
| 2026-04-23 07:22 | 50.97688 | -1.19068 | 41381 ft | 477 kts | 75° |
| 2026-04-23 07:22 | 50.99107 | -1.08810 | 41382 ft | 476 kts | 75° |
| 2026-04-23 07:23 | 51.00518 | -0.98563 | 41388 ft | 474 kts | 75° |
| 2026-04-23 07:23 | 51.01920 | -0.88303 | 41391 ft | 474 kts | 75° |